Aom Julia — 3FNQ3 — position and weather

sailwx.info

Track history (hours):
 
Tides and Currents Weather Stations Pressure Air Temp Water Temp Dewpoint Dewpoint Depression Visibility Wind Speed Wind Dir Waves Ship Positions

Aom Julia

Last reported at 2018-Jun-24 20:30 UTC. Time now 2018-Jun-24 20:38 UTC.
Position N 37°35' W 025°33'.

Length 225 m; draft 6.8 m.

Type: Cargo ship. MMSI: 355891000.

Date/timePositionNaut miles runAvg speedWind from/ knotsBaromVisibWave heightAir tempDewpointWater temp
2018-Jun-24 20:30N 37°35' W 025°33'713.8
2018-Jun-24 20:00N 37°35' W 025°24'714.3
2018-Jun-24 19:30N 37°35' W 025°15'714.4
2018-Jun-24 19:00N 37°35' W 025°06'713.8
2018-Jun-24 18:30N 37°35' W 024°57'713.7
2018-Jun-24 18:00N 37°35' W 024°49'714.3
2018-Jun-24 17:30N 37°34' W 024°40'714.1
2018-Jun-24 17:00N 37°34' W 024°31'713.7
2018-Jun-24 16:31N 37°34' W 024°22'713.8
2018-Jun-24 16:00N 37°33' W 024°13'714.1
2018-Jun-24 15:30N 37°33' W 024°05'714.0
2018-Jun-24 15:01N 37°33' W 023°56'713.6
2018-Jun-24 14:30N 37°33' W 023°47'713.7
2018-Jun-24 14:00N 37°32' W 023°39'  
2018-Jun-20 11:47N 37°02' W 001°08'513.6
2018-Jun-20 11:27N 37°05' W 001°03'713.8
2018-Jun-20 10:58N 37°08' W 000°56'714.0
2018-Jun-20 10:28N 37°12' W 000°49'613.9
2018-Jun-20 10:00N 37°16' W 000°43'1013.8
2018-Jun-20 09:17N 37°22' W 000°33'513.9
2018-Jun-20 08:56N 37°25' W 000°27'614.2
2018-Jun-20 08:30N 37°28' W 000°21'713.7
2018-Jun-20 08:00N 37°33' W 000°15'714.1
2018-Jun-20 07:30N 37°39' W 000°11'1314.2
2018-Jun-20 06:36N 37°50' W 000°02'213.9
2018-Jun-20 06:30N 37°52' W 000°01'1013.9
2018-Jun-20 05:46N 38°00' E 000°05'414.0
2018-Jun-20 05:29N 38°04' E 000°08'714.0
2018-Jun-20 05:00N 38°09' E 000°12'1814.0
2018-Jun-20 03:42N 38°25' E 000°24'613.9
2018-Jun-20 03:16N 38°30' E 000°28'11713.5
2018-Jun-19 18:36N 40°06' E 001°55'113.7
2018-Jun-19 18:30N 40°07' E 001°57'713.8
2018-Jun-19 18:01N 40°13' E 002°02'3914.0
2018-Jun-19 15:14N 40°44' E 002°32'713.7
2018-Jun-19 14:45N 40°49' E 002°38'313.7
2018-Jun-19 14:30N 40°52' E 002°40'713.8
2018-Jun-19 14:01N 40°57' E 002°46'713.6
2018-Jun-19 13:30N 41°03' E 002°51'713.5
2018-Jun-19 13:00N 41°08' E 002°56'713.6
2018-Jun-19 12:30N 41°13' E 003°02'713.9
2018-Jun-19 12:01N 41°19' E 003°07'713.7
2018-Jun-19 11:30N 41°24' E 003°13'713.7
2018-Jun-19 11:00N 41°30' E 003°18'12214.5
2018-Jun-19 02:36N 43°08' E 004°57'114.1
2018-Jun-19 02:30N 43°09' E 004°59'612.0
2018-Jun-19 01:59N 43°15' E 004°60'611.9
2018-Jun-19 01:31N 43°21' E 004°58'5 8.7
2018-Jun-19 01:00N 43°24' E 004°54'2 3.8
2018-Jun-19 00:30N 43°26' E 004°53'0 0.0
2018-Jun-18 23:56N 43°26' E 004°53'0 0.0
2018-Jun-18 23:29N 43°26' E 004°53'0 0.0
2018-Jun-18 22:59N 43°26' E 004°53'0 0.0
2018-Jun-18 22:29N 43°26' E 004°53'0 0.0
2018-Jun-18 21:59N 43°26' E 004°53'  
Track history (hours):
 
Tides and Currents Weather Stations Pressure Air Temp Water Temp Dewpoint Dewpoint Depression Visibility Wind Speed Wind Dir Waves Ship Positions

Aom Julia

Last reported at 2018-Jun-24 20:30 UTC. Time now 2018-Jun-24 20:38 UTC.
Position N 37°35' W 025°33'.

Length 225 m; draft 6.8 m.

Type: Cargo ship. MMSI: 355891000.

Date/timePositionNaut miles runAvg speedWind from/ knotsBaromVisibWave heightAir tempDewpointWater temp
2018-Jun-24 20:30N 37°35' W 025°33'713.8
2018-Jun-24 20:00N 37°35' W 025°24'714.3
2018-Jun-24 19:30N 37°35' W 025°15'714.4
2018-Jun-24 19:00N 37°35' W 025°06'713.8
2018-Jun-24 18:30N 37°35' W 024°57'713.7
2018-Jun-24 18:00N 37°35' W 024°49'714.3
2018-Jun-24 17:30N 37°34' W 024°40'714.1
2018-Jun-24 17:00N 37°34' W 024°31'713.7
2018-Jun-24 16:31N 37°34' W 024°22'713.8
2018-Jun-24 16:00N 37°33' W 024°13'714.1
2018-Jun-24 15:30N 37°33' W 024°05'714.0
2018-Jun-24 15:01N 37°33' W 023°56'713.6
2018-Jun-24 14:30N 37°33' W 023°47'713.7
2018-Jun-24 14:00N 37°32' W 023°39'  
2018-Jun-20 11:47N 37°02' W 001°08'513.6
2018-Jun-20 11:27N 37°05' W 001°03'713.8
2018-Jun-20 10:58N 37°08' W 000°56'714.0
2018-Jun-20 10:28N 37°12' W 000°49'613.9
2018-Jun-20 10:00N 37°16' W 000°43'1013.8
2018-Jun-20 09:17N 37°22' W 000°33'513.9
2018-Jun-20 08:56N 37°25' W 000°27'614.2
2018-Jun-20 08:30N 37°28' W 000°21'713.7
2018-Jun-20 08:00N 37°33' W 000°15'714.1
2018-Jun-20 07:30N 37°39' W 000°11'1314.2
2018-Jun-20 06:36N 37°50' W 000°02'213.9
2018-Jun-20 06:30N 37°52' W 000°01'1013.9
2018-Jun-20 05:46N 38°00' E 000°05'414.0
2018-Jun-20 05:29N 38°04' E 000°08'714.0
2018-Jun-20 05:00N 38°09' E 000°12'1814.0
2018-Jun-20 03:42N 38°25' E 000°24'613.9
2018-Jun-20 03:16N 38°30' E 000°28'11713.5
2018-Jun-19 18:36N 40°06' E 001°55'113.7
2018-Jun-19 18:30N 40°07' E 001°57'713.8
2018-Jun-19 18:01N 40°13' E 002°02'3914.0
2018-Jun-19 15:14N 40°44' E 002°32'713.7
2018-Jun-19 14:45N 40°49' E 002°38'313.7
2018-Jun-19 14:30N 40°52' E 002°40'713.8
2018-Jun-19 14:01N 40°57' E 002°46'713.6
2018-Jun-19 13:30N 41°03' E 002°51'713.5
2018-Jun-19 13:00N 41°08' E 002°56'713.6
2018-Jun-19 12:30N 41°13' E 003°02'713.9
2018-Jun-19 12:01N 41°19' E 003°07'713.7
2018-Jun-19 11:30N 41°24' E 003°13'713.7
2018-Jun-19 11:00N 41°30' E 003°18'12214.5
2018-Jun-19 02:36N 43°08' E 004°57'114.1
2018-Jun-19 02:30N 43°09' E 004°59'612.0
2018-Jun-19 01:59N 43°15' E 004°60'611.9
2018-Jun-19 01:31N 43°21' E 004°58'5 8.7
2018-Jun-19 01:00N 43°24' E 004°54'2 3.8
2018-Jun-19 00:30N 43°26' E 004°53'0 0.0
2018-Jun-18 23:56N 43°26' E 004°53'0 0.0
2018-Jun-18 23:29N 43°26' E 004°53'0 0.0
2018-Jun-18 22:59N 43°26' E 004°53'0 0.0
2018-Jun-18 22:29N 43°26' E 004°53'0 0.0
2018-Jun-18 21:59N 43°26' E 004°53'  

Dump ship's entire track history